createdAt,value
2018-03-23T00:01:36.054Z,24.65
2018-03-23T00:07:26.649Z,22.84
2018-03-23T00:13:17.258Z,23.17
2018-03-23T00:19:07.889Z,23.3
2018-03-23T00:24:58.535Z,30.13
2018-03-23T00:30:49.059Z,27.25
2018-03-23T00:36:39.665Z,25.47
2018-03-23T00:42:30.302Z,24.5
2018-03-23T00:48:20.890Z,26.85
2018-03-23T00:54:11.451Z,23.99
2018-03-23T01:00:02.212Z,30.05
2018-03-23T01:05:52.680Z,27.9
2018-03-23T01:11:43.307Z,24.46
2018-03-23T01:17:33.853Z,26.98
2018-03-23T01:23:24.462Z,26.69
2018-03-23T01:29:15.015Z,24.16
2018-03-23T01:35:05.588Z,23.58
2018-03-23T01:40:56.204Z,26.67
2018-03-23T01:46:46.754Z,24.8
2018-03-23T01:52:37.333Z,24.39
2018-03-23T01:58:27.909Z,26.86
2018-03-23T02:04:18.494Z,25.2
2018-03-23T02:10:09.045Z,22.84
2018-03-23T02:15:59.625Z,25.24
2018-03-23T02:21:50.219Z,22.01
2018-03-23T02:27:40.772Z,25.45
2018-03-23T02:33:31.374Z,25.23
2018-03-23T02:39:21.943Z,24.56
2018-03-23T02:45:12.482Z,27.29
2018-03-23T02:51:03.061Z,27.31
2018-03-23T02:56:53.623Z,20.01
2018-03-23T03:02:44.227Z,22.64
2018-03-23T03:08:34.772Z,20.24
2018-03-23T03:14:25.440Z,16.94
2018-03-23T03:20:15.940Z,16.54
2018-03-23T03:26:06.596Z,18.47
2018-03-23T03:31:57.129Z,19.02
2018-03-23T03:37:47.665Z,16.31
2018-03-23T03:43:38.249Z,13.87
2018-03-23T03:49:28.862Z,14.64
2018-03-23T03:55:19.375Z,15.74
2018-03-23T04:01:09.968Z,15.64
2018-03-23T04:07:00.549Z,15.9
2018-03-23T04:12:51.120Z,14.34
2018-03-23T04:18:41.703Z,12.8
2018-03-23T04:24:32.302Z,14.93
2018-03-23T04:30:22.857Z,10.64
2018-03-23T04:36:13.453Z,13.68
2018-03-23T04:42:04.002Z,24
2018-03-23T04:47:54.625Z,10.34
2018-03-23T04:53:45.178Z,15.72
2018-03-23T04:59:35.760Z,16.04
2018-03-23T05:05:26.310Z,12.32
2018-03-23T05:11:16.864Z,30.54
2018-03-23T05:17:07.471Z,18.68
2018-03-23T05:22:58.073Z,17.55
2018-03-23T05:28:48.628Z,17.45
2018-03-23T05:34:39.205Z,18.57
2018-03-23T05:40:29.812Z,15.88
2018-03-23T05:46:20.400Z,13.97
2018-03-23T05:52:10.990Z,15
2018-03-23T05:58:01.522Z,17.15
2018-03-23T06:03:52.118Z,17.02
2018-03-23T06:09:42.691Z,15.46
2018-03-23T06:15:33.238Z,17.96
2018-03-23T06:21:23.844Z,18.57
2018-03-23T06:27:14.464Z,17.31
2018-03-23T06:33:05.096Z,17.57
2018-03-23T06:38:55.699Z,15.36
2018-03-23T06:44:46.369Z,20.17
2018-03-23T06:50:37.044Z,15.37
2018-03-23T06:56:27.655Z,17.92
2018-03-23T07:02:18.266Z,19.75
2018-03-23T07:08:08.885Z,18.86
2018-03-23T07:13:59.492Z,12.88
2018-03-23T07:19:50.162Z,15.43
2018-03-23T07:25:40.814Z,15.08
2018-03-23T07:31:31.507Z,20.53
2018-03-23T07:37:22.080Z,81.56
2018-03-23T07:43:12.699Z,17.99
2018-03-23T07:49:03.386Z,15.55
2018-03-23T07:54:53.979Z,13.86
2018-03-23T08:00:44.703Z,17.69
2018-03-23T08:06:35.293Z,18.46
2018-03-23T08:12:25.916Z,14.38
2018-03-23T08:18:16.605Z,16.3
2018-03-23T08:24:07.261Z,14.92
2018-03-23T08:29:57.880Z,16.22
2018-03-23T08:35:48.482Z,12.58
2018-03-23T08:41:39.146Z,14.05
2018-03-23T08:47:29.810Z,13.5
2018-03-23T08:53:20.426Z,13.38
2018-03-23T08:59:11.070Z,12.76
2018-03-23T09:05:01.698Z,13.94
2018-03-23T09:10:52.312Z,14.98
2018-03-23T09:16:43.029Z,9.89
2018-03-23T09:22:33.560Z,18.26
2018-03-23T09:28:24.225Z,18.81
2018-03-23T09:34:14.875Z,13.76
2018-03-23T09:40:05.527Z,13.04
2018-03-23T09:45:56.136Z,15.09
2018-03-23T09:51:46.811Z,16.38
2018-03-23T09:57:37.404Z,15.16
2018-03-23T10:03:28.191Z,12.98
2018-03-23T10:09:18.771Z,13.64
2018-03-23T10:15:09.361Z,10.97
2018-03-23T10:21:00.106Z,14.9
2018-03-23T10:26:50.666Z,14.12
2018-03-23T10:32:41.261Z,11.57
2018-03-23T10:38:31.953Z,14.16
2018-03-23T10:44:22.570Z,17.51
2018-03-23T10:50:13.205Z,15.47
2018-03-23T10:56:03.851Z,10.21
2018-03-23T11:01:54.470Z,11.02
2018-03-23T11:07:45.199Z,19.48
2018-03-23T11:13:35.864Z,13.49
2018-03-23T11:19:26.492Z,18.96
2018-03-23T11:25:17.176Z,16.96
2018-03-23T11:31:07.761Z,13.3
2018-03-23T11:36:58.433Z,11.14
2018-03-23T11:42:49.141Z,12.74
2018-03-23T11:48:39.713Z,11.57
2018-03-23T11:54:30.316Z,10.93
2018-03-23T12:00:20.982Z,13.4
2018-03-23T12:06:11.585Z,7.23
2018-03-23T12:12:02.334Z,10.04
2018-03-23T12:17:52.885Z,10.36
2018-03-23T12:23:43.596Z,12.09
2018-03-23T12:29:34.234Z,12.33
2018-03-23T12:35:24.869Z,10.38
2018-03-23T12:41:15.556Z,10.6
2018-03-23T12:47:06.150Z,9.02
2018-03-23T12:52:56.813Z,13.54
2018-03-23T12:58:47.449Z,9.51
2018-03-23T13:04:38.128Z,9.31
2018-03-23T13:10:28.761Z,10.63
2018-03-23T13:16:19.359Z,17.49
2018-03-23T13:22:10.050Z,12.09
2018-03-23T13:28:00.678Z,13.86
2018-03-23T13:33:51.309Z,9.55
2018-03-23T13:39:42.031Z,7.14
2018-03-23T13:45:32.637Z,9.88
2018-03-23T13:51:23.279Z,10.61
2018-03-23T13:57:14.103Z,8.95
2018-03-23T14:03:04.565Z,9.68
2018-03-23T14:08:55.258Z,9.71
2018-03-23T14:14:45.931Z,6.9
2018-03-23T14:20:36.519Z,8.4
2018-03-23T14:26:27.212Z,5.46
2018-03-23T14:32:17.845Z,6.72
2018-03-23T14:38:08.492Z,12.89
2018-03-23T14:43:59.265Z,8.51
2018-03-23T14:49:49.857Z,7.79
2018-03-23T14:55:40.481Z,10.31
2018-03-23T15:01:31.212Z,9.45
2018-03-23T15:07:21.718Z,19.27
2018-03-23T15:13:12.431Z,10.13
2018-03-23T15:19:03.095Z,11.71
2018-03-23T15:24:53.703Z,8.36
2018-03-23T15:30:44.384Z,11.16
2018-03-23T15:36:34.973Z,9.91
2018-03-23T15:42:25.813Z,12.41
2018-03-23T15:48:16.322Z,10.38
2018-03-23T15:54:07.014Z,18.62
2018-03-23T15:59:57.576Z,14.23
2018-03-23T16:05:48.205Z,25.61
2018-03-23T16:11:38.933Z,12.06
2018-03-23T16:18:30.128Z,8.05
2018-03-23T16:24:20.720Z,7.25
2018-03-23T16:30:30.420Z,6.35
2018-03-23T16:36:21.068Z,8.05
2018-03-23T16:42:11.694Z,7.68
2018-03-23T16:48:02.474Z,7.6
2018-03-23T16:53:52.979Z,6.18
2018-03-23T16:59:43.651Z,7.46
2018-03-23T17:05:34.264Z,8.36
2018-03-23T17:11:24.875Z,6.94
2018-03-23T17:17:15.554Z,8.07
2018-03-23T17:23:06.245Z,6.31
2018-03-23T17:28:56.863Z,6.93
2018-03-23T17:34:47.425Z,9.9
2018-03-23T17:40:38.081Z,14.31
2018-03-23T17:46:28.754Z,12.45
2018-03-23T17:52:19.394Z,11.49
2018-03-23T17:58:09.946Z,7.61
2018-03-23T18:04:00.564Z,27.58
2018-03-23T18:09:51.195Z,13.86
2018-03-23T18:15:41.843Z,10.1
2018-03-23T18:21:32.509Z,15.51
2018-03-23T18:27:23.089Z,17.31
2018-03-23T18:33:13.706Z,13.62
2018-03-23T18:39:33.968Z,16.56
2018-03-23T18:45:24.626Z,10.81
2018-03-23T18:51:15.249Z,11.63
2018-03-23T19:17:30.480Z,18.56
2018-03-23T19:23:21.077Z,19.47
2018-03-23T19:29:11.728Z,18.14
2018-03-23T19:35:02.326Z,25.65
2018-03-23T19:40:52.974Z,25.56
2018-03-23T19:46:43.536Z,20.62
2018-03-23T19:52:34.146Z,24.58
2018-03-23T19:58:24.730Z,19.07
2018-03-23T20:04:15.360Z,35.8
2018-03-23T20:10:05.927Z,42.65
2018-03-23T20:15:56.573Z,37.88
2018-03-23T20:21:47.215Z,37.06
2018-03-23T20:27:37.739Z,26.65
2018-03-23T20:33:28.340Z,31.04
2018-03-23T20:39:18.928Z,38.39
2018-03-23T20:45:09.562Z,40.33
2018-03-23T20:51:00.119Z,43.33
2018-03-23T20:56:50.727Z,28.37
2018-03-23T21:02:41.305Z,26.55
2018-03-23T21:08:31.894Z,19.79
2018-03-23T21:14:22.524Z,36.16
2018-03-23T21:20:13.163Z,27.5
2018-03-23T21:26:03.686Z,21.43
2018-03-23T21:31:54.261Z,25.73
2018-03-23T21:37:44.902Z,26.8
2018-03-23T21:43:35.460Z,32.04
2018-03-23T21:49:26.080Z,44.06
2018-03-23T21:55:16.654Z,26.4
2018-03-23T22:01:07.234Z,34.06
2018-03-23T22:06:57.801Z,58.48
2018-03-23T22:12:48.396Z,63.12
2018-03-23T22:18:38.974Z,49.51
2018-03-23T22:24:29.586Z,58.44
2018-03-23T22:30:20.180Z,57.95
2018-03-23T22:36:10.806Z,44.26
2018-03-23T22:42:01.344Z,51.79
2018-03-23T22:47:51.918Z,51.33
2018-03-23T22:53:42.483Z,59.86
2018-03-23T22:59:33.076Z,55.99
2018-03-23T23:05:23.674Z,49.37
2018-03-23T23:11:14.290Z,48.52
2018-03-23T23:17:04.892Z,43.75
2018-03-23T23:22:55.372Z,32.3
2018-03-23T23:28:46.024Z,29.45
2018-03-23T23:34:36.543Z,23.01
2018-03-23T23:40:27.118Z,22.99
2018-03-23T23:46:17.697Z,19
2018-03-23T23:52:08.318Z,20.04
2018-03-23T23:57:58.844Z,24.25
